Terminal Aerodrome Forecast
Issued by NWS

Home | Current Version | Previous Version | Text Only | Print | Product List | Glossary On
Versions: 1 2 3 4 5 6 7 8 9 10 11 12 13 14 15 16
000
FTUS46 KLOX 290559
TAFPRB
TAF
KPRB 290559Z 2906/3006 31008KT P6SM SCT250
     FM291200 VRB03KT 6SM BR VCFG SCT004 SCT250
     FM291600 31006KT P6SM SCT250
     FM292100 28012KT P6SM SCT250
     FM300400 31008KT P6SM SCT150 SCT200=

USA.gov is the U.S. government's official web portal to all federal, state and local government web resources and services.